sensor_id;sensor_type;location;lat;lon;timestamp;P1;durP1;ratioP1;P2;durP2;ratioP2
11100;SDS011;5604;50.722;7.078;2023-04-03T00:01:43;3.77;;;2.30;;
11100;SDS011;5604;50.722;7.078;2023-04-03T00:04:14;3.33;;;2.40;;
11100;SDS011;5604;50.722;7.078;2023-04-03T00:06:43;2.70;;;2.50;;
11100;SDS011;5604;50.722;7.078;2023-04-03T00:09:15;3.20;;;2.27;;
11100;SDS011;5604;50.722;7.078;2023-04-03T00:11:51;4.70;;;2.37;;
11100;SDS011;5604;50.722;7.078;2023-04-03T00:14:19;2.70;;;2.27;;
11100;SDS011;5604;50.722;7.078;2023-04-03T00:16:48;2.70;;;2.27;;
11100;SDS011;5604;50.722;7.078;2023-04-03T00:19:16;3.97;;;2.53;;
11100;SDS011;5604;50.722;7.078;2023-04-03T00:21:44;2.90;;;2.50;;
11100;SDS011;5604;50.722;7.078;2023-04-03T00:24:12;4.17;;;2.27;;
11100;SDS011;5604;50.722;7.078;2023-04-03T00:26:48;3.03;;;2.40;;
11100;SDS011;5604;50.722;7.078;2023-04-03T00:29:16;4.40;;;2.33;;
11100;SDS011;5604;50.722;7.078;2023-04-03T00:31:44;4.27;;;2.33;;
11100;SDS011;5604;50.722;7.078;2023-04-03T00:34:12;5.50;;;2.60;;
11100;SDS011;5604;50.722;7.078;2023-04-03T00:36:43;4.57;;;2.47;;
11100;SDS011;5604;50.722;7.078;2023-04-03T00:39:14;2.50;;;2.27;;
11100;SDS011;5604;50.722;7.078;2023-04-03T00:41:43;3.60;;;2.43;;
11100;SDS011;5604;50.722;7.078;2023-04-03T00:44:22;3.37;;;2.37;;
11100;SDS011;5604;50.722;7.078;2023-04-03T00:46:50;3.03;;;2.40;;
11100;SDS011;5604;50.722;7.078;2023-04-03T00:49:22;3.17;;;2.63;;
11100;SDS011;5604;50.722;7.078;2023-04-03T00:51:50;4.70;;;2.53;;
11100;SDS011;5604;50.722;7.078;2023-04-03T00:54:21;2.57;;;2.37;;
11100;SDS011;5604;50.722;7.078;2023-04-03T00:56:49;3.50;;;2.37;;
11100;SDS011;5604;50.722;7.078;2023-04-03T00:59:25;3.20;;;2.70;;
11100;SDS011;5604;50.722;7.078;2023-04-03T01:01:56;3.27;;;2.70;;
11100;SDS011;5604;50.722;7.078;2023-04-03T01:04:27;3.13;;;2.30;;
11100;SDS011;5604;50.722;7.078;2023-04-03T01:06:58;3.43;;;2.40;;
11100;SDS011;5604;50.722;7.078;2023-04-03T01:09:32;2.43;;;2.23;;
11100;SDS011;5604;50.722;7.078;2023-04-03T01:12:12;2.67;;;2.30;;
11100;SDS011;5604;50.722;7.078;2023-04-03T01:14:44;2.97;;;2.50;;
11100;SDS011;5604;50.722;7.078;2023-04-03T01:17:29;2.70;;;2.23;;
11100;SDS011;5604;50.722;7.078;2023-04-03T01:20:09;4.70;;;2.67;;
11100;SDS011;5604;50.722;7.078;2023-04-03T01:23:02;3.70;;;2.50;;
11100;SDS011;5604;50.722;7.078;2023-04-03T01:25:40;3.87;;;2.40;;
11100;SDS011;5604;50.722;7.078;2023-04-03T01:28:10;3.50;;;2.40;;
11100;SDS011;5604;50.722;7.078;2023-04-03T01:30:51;3.33;;;2.60;;
11100;SDS011;5604;50.722;7.078;2023-04-03T01:33:24;5.23;;;2.60;;
11100;SDS011;5604;50.722;7.078;2023-04-03T01:35:53;6.23;;;2.57;;
11100;SDS011;5604;50.722;7.078;2023-04-03T01:38:21;3.43;;;2.33;;
11100;SDS011;5604;50.722;7.078;2023-04-03T01:40:52;2.83;;;2.33;;
11100;SDS011;5604;50.722;7.078;2023-04-03T01:43:20;3.23;;;2.50;;
11100;SDS011;5604;50.722;7.078;2023-04-03T01:45:49;4.80;;;2.70;;
11100;SDS011;5604;50.722;7.078;2023-04-03T01:48:25;3.57;;;2.70;;
11100;SDS011;5604;50.722;7.078;2023-04-03T01:50:53;3.10;;;2.53;;
11100;SDS011;5604;50.722;7.078;2023-04-03T01:53:22;2.60;;;2.33;;
11100;SDS011;5604;50.722;7.078;2023-04-03T01:55:51;3.63;;;2.80;;
11100;SDS011;5604;50.722;7.078;2023-04-03T01:58:20;7.40;;;2.80;;
11100;SDS011;5604;50.722;7.078;2023-04-03T02:00:52;4.33;;;2.50;;
11100;SDS011;5604;50.722;7.078;2023-04-03T02:03:24;3.27;;;2.70;;
11100;SDS011;5604;50.722;7.078;2023-04-03T02:05:52;2.90;;;2.50;;
11100;SDS011;5604;50.722;7.078;2023-04-03T02:08:21;2.73;;;2.13;;
11100;SDS011;5604;50.722;7.078;2023-04-03T02:10:53;3.93;;;2.77;;
11100;SDS011;5604;50.722;7.078;2023-04-03T02:13:23;3.33;;;2.73;;
11100;SDS011;5604;50.722;7.078;2023-04-03T02:16:05;5.67;;;2.90;;
11100;SDS011;5604;50.722;7.078;2023-04-03T02:18:37;4.20;;;2.47;;
11100;SDS011;5604;50.722;7.078;2023-04-03T02:21:07;4.23;;;2.20;;
11100;SDS011;5604;50.722;7.078;2023-04-03T02:23:41;5.00;;;2.77;;
11100;SDS011;5604;50.722;7.078;2023-04-03T02:26:10;6.40;;;2.50;;
11100;SDS011;5604;50.722;7.078;2023-04-03T02:28:44;2.97;;;2.50;;
11100;SDS011;5604;50.722;7.078;2023-04-03T02:31:12;2.57;;;2.17;;
11100;SDS011;5604;50.722;7.078;2023-04-03T02:33:46;2.80;;;2.27;;
11100;SDS011;5604;50.722;7.078;2023-04-03T02:36:19;5.13;;;2.70;;
11100;SDS011;5604;50.722;7.078;2023-04-03T02:38:53;4.87;;;2.70;;
11100;SDS011;5604;50.722;7.078;2023-04-03T02:41:25;4.97;;;2.43;;
11100;SDS011;5604;50.722;7.078;2023-04-03T02:44:05;2.63;;;2.20;;
11100;SDS011;5604;50.722;7.078;2023-04-03T02:46:37;3.47;;;2.53;;
11100;SDS011;5604;50.722;7.078;2023-04-03T02:49:07;2.43;;;2.23;;
11100;SDS011;5604;50.722;7.078;2023-04-03T02:51:40;3.10;;;2.30;;
11100;SDS011;5604;50.722;7.078;2023-04-03T02:54:13;3.27;;;2.50;;
11100;SDS011;5604;50.722;7.078;2023-04-03T02:56:48;4.10;;;2.30;;
11100;SDS011;5604;50.722;7.078;2023-04-03T02:59:19;2.77;;;2.20;;
11100;SDS011;5604;50.722;7.078;2023-04-03T03:01:50;5.57;;;2.70;;
11100;SDS011;5604;50.722;7.078;2023-04-03T03:04:20;4.83;;;2.53;;
11100;SDS011;5604;50.722;7.078;2023-04-03T03:06:51;2.67;;;2.40;;
11100;SDS011;5604;50.722;7.078;2023-04-03T03:09:19;3.97;;;2.40;;
11100;SDS011;5604;50.722;7.078;2023-04-03T03:11:51;4.10;;;2.63;;
11100;SDS011;5604;50.722;7.078;2023-04-03T03:14:19;3.50;;;2.20;;
11100;SDS011;5604;50.722;7.078;2023-04-03T03:16:49;4.50;;;2.70;;
11100;SDS011;5604;50.722;7.078;2023-04-03T03:19:28;4.80;;;2.50;;
11100;SDS011;5604;50.722;7.078;2023-04-03T03:21:56;2.57;;;2.33;;
11100;SDS011;5604;50.722;7.078;2023-04-03T03:24:24;3.23;;;2.30;;
11100;SDS011;5604;50.722;7.078;2023-04-03T03:26:58;3.83;;;2.60;;
11100;SDS011;5604;50.722;7.078;2023-04-03T03:29:28;4.40;;;2.33;;
11100;SDS011;5604;50.722;7.078;2023-04-03T03:31:58;3.50;;;2.20;;
11100;SDS011;5604;50.722;7.078;2023-04-03T03:34:30;5.37;;;2.57;;
11100;SDS011;5604;50.722;7.078;2023-04-03T03:37:01;3.30;;;2.67;;
11100;SDS011;5604;50.722;7.078;2023-04-03T03:39:32;5.40;;;2.43;;
11100;SDS011;5604;50.722;7.078;2023-04-03T03:42:05;3.73;;;2.80;;
11100;SDS011;5604;50.722;7.078;2023-04-03T03:44:35;2.70;;;2.50;;
11100;SDS011;5604;50.722;7.078;2023-04-03T03:47:06;3.53;;;2.70;;
11100;SDS011;5604;50.722;7.078;2023-04-03T03:49:40;4.57;;;2.50;;
11100;SDS011;5604;50.722;7.078;2023-04-03T03:52:11;3.63;;;2.37;;
11100;SDS011;5604;50.722;7.078;2023-04-03T03:54:39;3.00;;;2.60;;
11100;SDS011;5604;50.722;7.078;2023-04-03T03:57:09;3.73;;;2.63;;
11100;SDS011;5604;50.722;7.078;2023-04-03T03:59:38;5.63;;;2.67;;
11100;SDS011;5604;50.722;7.078;2023-04-03T04:02:08;4.37;;;2.90;;
11100;SDS011;5604;50.722;7.078;2023-04-03T04:04:39;3.97;;;2.83;;
11100;SDS011;5604;50.722;7.078;2023-04-03T04:07:10;4.07;;;3.53;;
11100;SDS011;5604;50.722;7.078;2023-04-03T04:09:41;4.77;;;2.83;;
11100;SDS011;5604;50.722;7.078;2023-04-03T04:12:09;5.80;;;2.67;;
11100;SDS011;5604;50.722;7.078;2023-04-03T04:14:39;5.93;;;3.17;;
11100;SDS011;5604;50.722;7.078;2023-04-03T04:17:15;7.80;;;3.27;;
11100;SDS011;5604;50.722;7.078;2023-04-03T04:19:47;5.50;;;2.70;;
11100;SDS011;5604;50.722;7.078;2023-04-03T04:22:18;4.90;;;2.93;;
11100;SDS011;5604;50.722;7.078;2023-04-03T04:24:46;3.73;;;2.67;;
11100;SDS011;5604;50.722;7.078;2023-04-03T04:27:18;4.20;;;2.83;;
11100;SDS011;5604;50.722;7.078;2023-04-03T04:29:46;3.67;;;2.80;;
11100;SDS011;5604;50.722;7.078;2023-04-03T04:32:22;4.83;;;2.63;;
11100;SDS011;5604;50.722;7.078;2023-04-03T04:34:53;3.60;;;2.87;;
11100;SDS011;5604;50.722;7.078;2023-04-03T04:37:21;4.50;;;2.83;;
11100;SDS011;5604;50.722;7.078;2023-04-03T04:39:55;3.60;;;3.13;;
11100;SDS011;5604;50.722;7.078;2023-04-03T04:42:30;4.70;;;2.80;;
11100;SDS011;5604;50.722;7.078;2023-04-03T04:45:00;4.70;;;3.20;;
11100;SDS011;5604;50.722;7.078;2023-04-03T04:47:34;4.73;;;2.67;;
11100;SDS011;5604;50.722;7.078;2023-04-03T04:50:05;2.87;;;2.17;;
11100;SDS011;5604;50.722;7.078;2023-04-03T04:52:35;7.13;;;3.43;;
11100;SDS011;5604;50.722;7.078;2023-04-03T04:55:16;3.83;;;2.80;;
11100;SDS011;5604;50.722;7.078;2023-04-03T04:57:44;4.53;;;3.20;;
11100;SDS011;5604;50.722;7.078;2023-04-03T05:00:13;3.63;;;2.80;;
11100;SDS011;5604;50.722;7.078;2023-04-03T05:02:44;4.40;;;2.70;;
11100;SDS011;5604;50.722;7.078;2023-04-03T05:05:14;3.27;;;2.83;;
11100;SDS011;5604;50.722;7.078;2023-04-03T05:07:45;4.20;;;2.90;;
11100;SDS011;5604;50.722;7.078;2023-04-03T05:10:14;2.90;;;2.60;;
11100;SDS011;5604;50.722;7.078;2023-04-03T05:12:45;4.47;;;3.00;;
11100;SDS011;5604;50.722;7.078;2023-04-03T05:15:16;5.57;;;3.23;;
11100;SDS011;5604;50.722;7.078;2023-04-03T05:17:45;4.83;;;2.77;;
11100;SDS011;5604;50.722;7.078;2023-04-03T05:20:16;6.87;;;3.00;;
11100;SDS011;5604;50.722;7.078;2023-04-03T05:22:48;3.27;;;2.60;;
11100;SDS011;5604;50.722;7.078;2023-04-03T05:25:20;4.27;;;2.67;;
11100;SDS011;5604;50.722;7.078;2023-04-03T05:27:55;4.47;;;2.80;;
11100;SDS011;5604;50.722;7.078;2023-04-03T05:30:24;6.40;;;3.33;;
11100;SDS011;5604;50.722;7.078;2023-04-03T05:32:55;5.27;;;3.17;;
11100;SDS011;5604;50.722;7.078;2023-04-03T05:35:40;5.30;;;2.93;;
11100;SDS011;5604;50.722;7.078;2023-04-03T05:38:21;4.67;;;2.83;;
11100;SDS011;5604;50.722;7.078;2023-04-03T05:40:54;6.63;;;3.10;;
11100;SDS011;5604;50.722;7.078;2023-04-03T05:43:32;5.47;;;2.80;;
11100;SDS011;5604;50.722;7.078;2023-04-03T05:46:10;5.93;;;2.70;;
11100;SDS011;5604;50.722;7.078;2023-04-03T05:48:44;3.77;;;2.90;;
11100;SDS011;5604;50.722;7.078;2023-04-03T05:51:18;4.97;;;3.07;;
11100;SDS011;5604;50.722;7.078;2023-04-03T05:53:55;6.03;;;2.90;;
11100;SDS011;5604;50.722;7.078;2023-04-03T05:56:31;4.90;;;3.00;;
11100;SDS011;5604;50.722;7.078;2023-04-03T05:59:04;3.13;;;2.50;;
11100;SDS011;5604;50.722;7.078;2023-04-03T06:01:36;6.33;;;2.53;;
11100;SDS011;5604;50.722;7.078;2023-04-03T06:04:04;3.37;;;2.90;;
11100;SDS011;5604;50.722;7.078;2023-04-03T06:06:44;4.17;;;2.53;;
11100;SDS011;5604;50.722;7.078;2023-04-03T06:09:19;5.00;;;2.43;;
11100;SDS011;5604;50.722;7.078;2023-04-03T06:11:51;3.97;;;2.63;;
11100;SDS011;5604;50.722;7.078;2023-04-03T06:14:35;6.87;;;2.90;;
11100;SDS011;5604;50.722;7.078;2023-04-03T06:17:09;3.60;;;2.60;;
11100;SDS011;5604;50.722;7.078;2023-04-03T06:19:43;3.90;;;2.40;;
11100;SDS011;5604;50.722;7.078;2023-04-03T06:22:17;4.93;;;2.27;;
11100;SDS011;5604;50.722;7.078;2023-04-03T06:24:47;3.00;;;2.33;;
11100;SDS011;5604;50.722;7.078;2023-04-03T06:27:15;3.40;;;2.30;;
11100;SDS011;5604;50.722;7.078;2023-04-03T06:29:53;3.70;;;2.40;;
11100;SDS011;5604;50.722;7.078;2023-04-03T06:32:31;4.63;;;2.30;;
11100;SDS011;5604;50.722;7.078;2023-04-03T06:35:01;2.57;;;1.90;;
11100;SDS011;5604;50.722;7.078;2023-04-03T06:37:31;4.53;;;2.77;;
11100;SDS011;5604;50.722;7.078;2023-04-03T06:40:09;5.10;;;2.60;;
11100;SDS011;5604;50.722;7.078;2023-04-03T06:42:49;2.60;;;2.00;;
11100;SDS011;5604;50.722;7.078;2023-04-03T06:45:18;5.23;;;2.37;;
11100;SDS011;5604;50.722;7.078;2023-04-03T06:47:56;4.70;;;2.10;;
11100;SDS011;5604;50.722;7.078;2023-04-03T06:50:28;3.10;;;2.07;;
11100;SDS011;5604;50.722;7.078;2023-04-03T06:53:05;5.17;;;2.00;;
11100;SDS011;5604;50.722;7.078;2023-04-03T06:55:39;8.87;;;2.70;;
11100;SDS011;5604;50.722;7.078;2023-04-03T06:58:13;3.27;;;2.60;;
11100;SDS011;5604;50.722;7.078;2023-04-03T07:00:46;5.13;;;2.20;;
11100;SDS011;5604;50.722;7.078;2023-04-03T07:03:18;3.50;;;2.30;;
11100;SDS011;5604;50.722;7.078;2023-04-03T07:05:51;3.07;;;2.20;;
11100;SDS011;5604;50.722;7.078;2023-04-03T07:08:24;5.80;;;2.20;;
11100;SDS011;5604;50.722;7.078;2023-04-03T07:10:52;3.53;;;2.00;;
11100;SDS011;5604;50.722;7.078;2023-04-03T07:13:20;4.43;;;1.70;;
11100;SDS011;5604;50.722;7.078;2023-04-03T07:15:48;4.33;;;2.50;;
11100;SDS011;5604;50.722;7.078;2023-04-03T07:18:24;4.27;;;1.90;;
11100;SDS011;5604;50.722;7.078;2023-04-03T07:20:59;3.27;;;2.00;;
11100;SDS011;5604;50.722;7.078;2023-04-03T07:23:32;6.13;;;2.63;;
11100;SDS011;5604;50.722;7.078;2023-04-03T07:26:04;2.27;;;1.90;;
11100;SDS011;5604;50.722;7.078;2023-04-03T07:28:37;3.50;;;1.93;;
11100;SDS011;5604;50.722;7.078;2023-04-03T07:31:08;3.43;;;2.07;;
11100;SDS011;5604;50.722;7.078;2023-04-03T07:33:42;6.00;;;2.17;;
11100;SDS011;5604;50.722;7.078;2023-04-03T07:36:15;3.77;;;1.90;;
11100;SDS011;5604;50.722;7.078;2023-04-03T07:38:49;2.70;;;2.00;;
11100;SDS011;5604;50.722;7.078;2023-04-03T07:41:22;4.53;;;2.20;;
11100;SDS011;5604;50.722;7.078;2023-04-03T07:43:56;3.77;;;2.40;;
11100;SDS011;5604;50.722;7.078;2023-04-03T07:46:24;3.80;;;2.00;;
11100;SDS011;5604;50.722;7.078;2023-04-03T07:48:55;5.70;;;2.30;;
11100;SDS011;5604;50.722;7.078;2023-04-03T07:51:33;4.23;;;2.40;;
11100;SDS011;5604;50.722;7.078;2023-04-03T07:54:06;3.00;;;2.20;;
11100;SDS011;5604;50.722;7.078;2023-04-03T07:56:38;5.53;;;2.10;;
11100;SDS011;5604;50.722;7.078;2023-04-03T07:59:09;2.93;;;2.10;;
11100;SDS011;5604;50.722;7.078;2023-04-03T08:01:38;3.70;;;1.97;;
11100;SDS011;5604;50.722;7.078;2023-04-03T08:04:06;5.17;;;1.80;;
11100;SDS011;5604;50.722;7.078;2023-04-03T08:06:35;5.50;;;2.13;;
11100;SDS011;5604;50.722;7.078;2023-04-03T08:09:14;3.67;;;1.87;;
11100;SDS011;5604;50.722;7.078;2023-04-03T08:11:48;4.53;;;1.93;;
11100;SDS011;5604;50.722;7.078;2023-04-03T08:14:25;4.33;;;2.20;;
11100;SDS011;5604;50.722;7.078;2023-04-03T08:16:53;7.77;;;2.30;;
11100;SDS011;5604;50.722;7.078;2023-04-03T08:19:22;6.00;;;2.27;;
11100;SDS011;5604;50.722;7.078;2023-04-03T08:21:53;3.90;;;1.90;;
11100;SDS011;5604;50.722;7.078;2023-04-03T08:24:24;2.67;;;1.87;;
11100;SDS011;5604;50.722;7.078;2023-04-03T08:26:55;4.60;;;2.03;;
11100;SDS011;5604;50.722;7.078;2023-04-03T08:29:25;4.23;;;1.93;;
11100;SDS011;5604;50.722;7.078;2023-04-03T08:31:53;5.07;;;1.87;;
11100;SDS011;5604;50.722;7.078;2023-04-03T08:34:27;6.23;;;1.80;;
11100;SDS011;5604;50.722;7.078;2023-04-03T08:36:55;3.23;;;1.90;;
11100;SDS011;5604;50.722;7.078;2023-04-03T08:39:30;4.47;;;2.00;;
11100;SDS011;5604;50.722;7.078;2023-04-03T08:42:10;5.07;;;1.90;;
11100;SDS011;5604;50.722;7.078;2023-04-03T08:44:46;4.70;;;2.27;;
11100;SDS011;5604;50.722;7.078;2023-04-03T08:47:23;2.93;;;2.13;;
11100;SDS011;5604;50.722;7.078;2023-04-03T08:49:58;4.13;;;2.40;;
11100;SDS011;5604;50.722;7.078;2023-04-03T08:52:32;4.10;;;1.90;;
11100;SDS011;5604;50.722;7.078;2023-04-03T08:55:05;2.17;;;1.70;;
11100;SDS011;5604;50.722;7.078;2023-04-03T08:57:36;2.73;;;2.00;;
11100;SDS011;5604;50.722;7.078;2023-04-03T09:00:14;3.63;;;1.80;;
11100;SDS011;5604;50.722;7.078;2023-04-03T09:02:46;5.23;;;2.03;;
11100;SDS011;5604;50.722;7.078;2023-04-03T09:05:16;4.07;;;2.10;;
11100;SDS011;5604;50.722;7.078;2023-04-03T09:07:47;4.93;;;2.13;;
11100;SDS011;5604;50.722;7.078;2023-04-03T09:10:23;4.60;;;2.17;;
11100;SDS011;5604;50.722;7.078;2023-04-03T09:12:53;2.83;;;1.70;;
11100;SDS011;5604;50.722;7.078;2023-04-03T09:15:27;6.10;;;1.93;;
11100;SDS011;5604;50.722;7.078;2023-04-03T09:18:05;4.30;;;2.10;;
11100;SDS011;5604;50.722;7.078;2023-04-03T09:20:43;4.97;;;1.97;;
11100;SDS011;5604;50.722;7.078;2023-04-03T09:23:22;3.13;;;1.90;;
11100;SDS011;5604;50.722;7.078;2023-04-03T09:25:54;3.63;;;1.90;;
11100;SDS011;5604;50.722;7.078;2023-04-03T09:28:26;4.07;;;2.00;;
11100;SDS011;5604;50.722;7.078;2023-04-03T09:31:01;3.37;;;1.70;;
11100;SDS011;5604;50.722;7.078;2023-04-03T09:33:33;5.70;;;2.10;;
11100;SDS011;5604;50.722;7.078;2023-04-03T09:36:09;2.93;;;1.90;;
11100;SDS011;5604;50.722;7.078;2023-04-03T09:38:37;4.80;;;1.70;;
11100;SDS011;5604;50.722;7.078;2023-04-03T09:41:11;3.73;;;1.80;;
11100;SDS011;5604;50.722;7.078;2023-04-03T09:43:51;3.97;;;2.40;;
11100;SDS011;5604;50.722;7.078;2023-04-03T09:46:26;2.97;;;2.13;;
11100;SDS011;5604;50.722;7.078;2023-04-03T09:48:58;3.57;;;1.77;;
11100;SDS011;5604;50.722;7.078;2023-04-03T09:51:37;2.87;;;1.50;;
11100;SDS011;5604;50.722;7.078;2023-04-03T09:57:13;1.97;;;1.63;;
11100;SDS011;5604;50.722;7.078;2023-04-03T09:59:45;3.73;;;1.90;;
11100;SDS011;5604;50.722;7.078;2023-04-03T10:02:21;2.27;;;1.67;;
11100;SDS011;5604;50.722;7.078;2023-04-03T10:04:54;3.53;;;1.90;;
11100;SDS011;5604;50.722;7.078;2023-04-03T10:07:35;2.70;;;1.50;;
11100;SDS011;5604;50.722;7.078;2023-04-03T10:10:16;3.57;;;1.77;;
11100;SDS011;5604;50.722;7.078;2023-04-03T10:12:50;3.10;;;1.80;;
11100;SDS011;5604;50.722;7.078;2023-04-03T10:15:31;3.13;;;1.80;;
11100;SDS011;5604;50.722;7.078;2023-04-03T10:18:04;3.60;;;1.67;;
11100;SDS011;5604;50.722;7.078;2023-04-03T10:20:56;4.37;;;1.83;;
11100;SDS011;5604;50.722;7.078;2023-04-03T10:23:34;2.47;;;1.63;;
11100;SDS011;5604;50.722;7.078;2023-04-03T10:26:08;3.57;;;1.97;;
11100;SDS011;5604;50.722;7.078;2023-04-03T10:28:56;1.50;;;1.40;;
11100;SDS011;5604;50.722;7.078;2023-04-03T10:31:28;3.73;;;1.57;;
11100;SDS011;5604;50.722;7.078;2023-04-03T10:34:04;2.03;;;1.30;;
11100;SDS011;5604;50.722;7.078;2023-04-03T10:36:38;2.27;;;1.70;;
11100;SDS011;5604;50.722;7.078;2023-04-03T10:39:23;3.30;;;1.90;;
11100;SDS011;5604;50.722;7.078;2023-04-03T10:42:05;3.30;;;1.57;;
11100;SDS011;5604;50.722;7.078;2023-04-03T10:44:49;2.13;;;1.40;;
11100;SDS011;5604;50.722;7.078;2023-04-03T10:47:38;2.17;;;1.50;;
11100;SDS011;5604;50.722;7.078;2023-04-03T10:50:20;2.47;;;1.37;;
11100;SDS011;5604;50.722;7.078;2023-04-03T10:52:57;2.73;;;1.60;;
11100;SDS011;5604;50.722;7.078;2023-04-03T10:55:31;1.27;;;1.17;;
11100;SDS011;5604;50.722;7.078;2023-04-03T10:58:12;3.37;;;1.40;;
11100;SDS011;5604;50.722;7.078;2023-04-03T11:00:47;2.70;;;1.50;;
11100;SDS011;5604;50.722;7.078;2023-04-03T11:03:24;3.20;;;1.53;;
11100;SDS011;5604;50.722;7.078;2023-04-03T11:06:02;3.30;;;1.40;;
11100;SDS011;5604;50.722;7.078;2023-04-03T11:08:39;3.13;;;1.73;;
11100;SDS011;5604;50.722;7.078;2023-04-03T11:11:19;3.10;;;1.73;;
11100;SDS011;5604;50.722;7.078;2023-04-03T11:13:49;2.23;;;1.60;;
11100;SDS011;5604;50.722;7.078;2023-04-03T11:16:28;5.47;;;1.37;;
11100;SDS011;5604;50.722;7.078;2023-04-03T11:19:19;4.63;;;1.47;;
11100;SDS011;5604;50.722;7.078;2023-04-03T11:21:59;1.50;;;1.40;;
11100;SDS011;5604;50.722;7.078;2023-04-03T11:24:32;2.07;;;1.67;;
11100;SDS011;5604;50.722;7.078;2023-04-03T11:27:03;2.47;;;1.50;;
11100;SDS011;5604;50.722;7.078;2023-04-03T11:29:38;1.40;;;1.30;;
11100;SDS011;5604;50.722;7.078;2023-04-03T11:32:17;2.20;;;1.63;;
11100;SDS011;5604;50.722;7.078;2023-04-03T11:35:02;3.00;;;1.97;;
11100;SDS011;5604;50.722;7.078;2023-04-03T11:37:46;2.27;;;1.50;;
11100;SDS011;5604;50.722;7.078;2023-04-03T11:40:22;2.17;;;1.30;;
11100;SDS011;5604;50.722;7.078;2023-04-03T11:43:02;2.50;;;1.43;;
11100;SDS011;5604;50.722;7.078;2023-04-03T11:45:35;1.70;;;1.50;;
11100;SDS011;5604;50.722;7.078;2023-04-03T11:48:41;2.83;;;1.57;;
11100;SDS011;5604;50.722;7.078;2023-04-03T11:54:35;3.80;;;1.73;;
11100;SDS011;5604;50.722;7.078;2023-04-03T12:03:31;1.40;;;1.30;;
11100;SDS011;5604;50.722;7.078;2023-04-03T12:09:34;1.17;;;1.07;;
11100;SDS011;5604;50.722;7.078;2023-04-03T12:12:34;2.50;;;1.40;;
11100;SDS011;5604;50.722;7.078;2023-04-03T12:15:23;2.63;;;1.50;;
11100;SDS011;5604;50.722;7.078;2023-04-03T12:17:58;2.97;;;1.47;;
11100;SDS011;5604;50.722;7.078;2023-04-03T12:20:59;1.73;;;1.50;;
11100;SDS011;5604;50.722;7.078;2023-04-03T12:23:32;1.27;;;1.17;;
11100;SDS011;5604;50.722;7.078;2023-04-03T12:26:06;2.50;;;1.47;;
11100;SDS011;5604;50.722;7.078;2023-04-03T12:28:50;2.90;;;1.30;;
11100;SDS011;5604;50.722;7.078;2023-04-03T12:31:20;3.33;;;1.67;;
11100;SDS011;5604;50.722;7.078;2023-04-03T12:33:59;3.57;;;1.60;;
11100;SDS011;5604;50.722;7.078;2023-04-03T12:36:38;2.30;;;1.27;;
11100;SDS011;5604;50.722;7.078;2023-04-03T12:39:14;1.60;;;1.30;;
11100;SDS011;5604;50.722;7.078;2023-04-03T12:41:53;3.03;;;1.40;;
11100;SDS011;5604;50.722;7.078;2023-04-03T12:47:37;1.40;;;1.27;;
11100;SDS011;5604;50.722;7.078;2023-04-03T12:50:17;2.60;;;1.50;;
11100;SDS011;5604;50.722;7.078;2023-04-03T12:52:59;2.43;;;1.40;;
11100;SDS011;5604;50.722;7.078;2023-04-03T12:55:32;2.03;;;1.30;;
11100;SDS011;5604;50.722;7.078;2023-04-03T12:58:12;2.47;;;1.33;;
11100;SDS011;5604;50.722;7.078;2023-04-03T13:00:48;2.00;;;1.43;;
11100;SDS011;5604;50.722;7.078;2023-04-03T13:03:27;1.67;;;1.20;;
11100;SDS011;5604;50.722;7.078;2023-04-03T13:06:04;2.33;;;1.50;;
11100;SDS011;5604;50.722;7.078;2023-04-03T13:08:33;4.00;;;1.40;;
11100;SDS011;5604;50.722;7.078;2023-04-03T13:11:03;3.17;;;1.50;;
11100;SDS011;5604;50.722;7.078;2023-04-03T13:13:37;1.83;;;1.40;;
11100;SDS011;5604;50.722;7.078;2023-04-03T13:16:07;2.70;;;1.50;;
11100;SDS011;5604;50.722;7.078;2023-04-03T13:18:37;2.23;;;1.60;;
11100;SDS011;5604;50.722;7.078;2023-04-03T13:21:07;2.17;;;1.20;;
11100;SDS011;5604;50.722;7.078;2023-04-03T13:23:45;1.73;;;1.30;;
11100;SDS011;5604;50.722;7.078;2023-04-03T13:26:24;2.07;;;1.30;;
11100;SDS011;5604;50.722;7.078;2023-04-03T13:28:54;3.10;;;1.33;;
11100;SDS011;5604;50.722;7.078;2023-04-03T13:31:27;2.97;;;1.63;;
11100;SDS011;5604;50.722;7.078;2023-04-03T13:34:02;2.47;;;1.67;;
11100;SDS011;5604;50.722;7.078;2023-04-03T13:36:38;1.67;;;1.40;;
11100;SDS011;5604;50.722;7.078;2023-04-03T13:39:20;1.43;;;1.33;;
11100;SDS011;5604;50.722;7.078;2023-04-03T13:41:56;2.70;;;1.63;;
11100;SDS011;5604;50.722;7.078;2023-04-03T13:44:30;2.77;;;1.50;;
11100;SDS011;5604;50.722;7.078;2023-04-03T13:47:14;4.17;;;1.67;;
11100;SDS011;5604;50.722;7.078;2023-04-03T13:49:58;2.10;;;1.60;;
11100;SDS011;5604;50.722;7.078;2023-04-03T13:52:29;2.37;;;1.60;;
11100;SDS011;5604;50.722;7.078;2023-04-03T13:55:04;3.03;;;1.50;;
11100;SDS011;5604;50.722;7.078;2023-04-03T13:57:53;2.03;;;1.47;;
11100;SDS011;5604;50.722;7.078;2023-04-03T14:00:28;3.10;;;1.50;;
11100;SDS011;5604;50.722;7.078;2023-04-03T14:03:13;3.13;;;1.40;;
11100;SDS011;5604;50.722;7.078;2023-04-03T14:05:41;2.63;;;1.87;;
11100;SDS011;5604;50.722;7.078;2023-04-03T14:08:12;2.60;;;1.60;;
11100;SDS011;5604;50.722;7.078;2023-04-03T14:10:45;3.17;;;1.50;;
11100;SDS011;5604;50.722;7.078;2023-04-03T14:13:15;3.70;;;1.70;;
11100;SDS011;5604;50.722;7.078;2023-04-03T14:15:47;4.43;;;2.47;;
11100;SDS011;5604;50.722;7.078;2023-04-03T14:18:21;2.30;;;1.37;;
11100;SDS011;5604;50.722;7.078;2023-04-03T14:20:51;3.77;;;1.90;;
11100;SDS011;5604;50.722;7.078;2023-04-03T14:23:23;2.10;;;1.60;;
11100;SDS011;5604;50.722;7.078;2023-04-03T14:25:54;2.83;;;1.53;;
11100;SDS011;5604;50.722;7.078;2023-04-03T14:28:27;1.97;;;1.40;;
11100;SDS011;5604;50.722;7.078;2023-04-03T14:30:59;2.33;;;1.70;;
11100;SDS011;5604;50.722;7.078;2023-04-03T14:33:33;3.43;;;1.87;;
11100;SDS011;5604;50.722;7.078;2023-04-03T14:36:11;2.00;;;1.43;;
11100;SDS011;5604;50.722;7.078;2023-04-03T14:38:46;5.07;;;1.50;;
11100;SDS011;5604;50.722;7.078;2023-04-03T14:41:21;1.97;;;1.53;;
11100;SDS011;5604;50.722;7.078;2023-04-03T14:43:52;2.20;;;1.70;;
11100;SDS011;5604;50.722;7.078;2023-04-03T14:46:30;2.70;;;1.40;;
11100;SDS011;5604;50.722;7.078;2023-04-03T14:49:22;2.47;;;1.83;;
11100;SDS011;5604;50.722;7.078;2023-04-03T14:51:57;2.67;;;1.40;;
11100;SDS011;5604;50.722;7.078;2023-04-03T14:54:30;2.60;;;1.73;;
11100;SDS011;5604;50.722;7.078;2023-04-03T14:57:08;1.53;;;1.43;;
11100;SDS011;5604;50.722;7.078;2023-04-03T14:59:38;2.73;;;1.60;;
11100;SDS011;5604;50.722;7.078;2023-04-03T15:02:24;3.40;;;1.73;;
11100;SDS011;5604;50.722;7.078;2023-04-03T15:05:06;2.60;;;1.87;;
11100;SDS011;5604;50.722;7.078;2023-04-03T15:07:37;2.20;;;1.40;;
11100;SDS011;5604;50.722;7.078;2023-04-03T15:10:15;2.63;;;1.50;;
11100;SDS011;5604;50.722;7.078;2023-04-03T15:12:45;3.33;;;1.90;;
11100;SDS011;5604;50.722;7.078;2023-04-03T15:15:16;3.13;;;1.43;;
11100;SDS011;5604;50.722;7.078;2023-04-03T15:17:46;3.47;;;1.80;;
11100;SDS011;5604;50.722;7.078;2023-04-03T15:20:25;2.50;;;1.53;;
11100;SDS011;5604;50.722;7.078;2023-04-03T15:22:54;2.53;;;1.57;;
11100;SDS011;5604;50.722;7.078;2023-04-03T15:25:28;3.17;;;1.80;;
11100;SDS011;5604;50.722;7.078;2023-04-03T15:27:59;2.77;;;1.60;;
11100;SDS011;5604;50.722;7.078;2023-04-03T15:30:29;3.93;;;1.43;;
11100;SDS011;5604;50.722;7.078;2023-04-03T15:32:57;3.53;;;1.60;;
11100;SDS011;5604;50.722;7.078;2023-04-03T15:35:26;3.80;;;1.80;;
11100;SDS011;5604;50.722;7.078;2023-04-03T15:37:59;3.10;;;1.83;;
11100;SDS011;5604;50.722;7.078;2023-04-03T15:40:28;4.63;;;1.80;;
11100;SDS011;5604;50.722;7.078;2023-04-03T15:42:57;2.57;;;1.80;;
11100;SDS011;5604;50.722;7.078;2023-04-03T15:45:29;3.77;;;1.63;;
11100;SDS011;5604;50.722;7.078;2023-04-03T15:48:01;2.00;;;1.50;;
11100;SDS011;5604;50.722;7.078;2023-04-03T15:50:33;1.90;;;1.70;;
11100;SDS011;5604;50.722;7.078;2023-04-03T15:53:06;2.20;;;1.47;;
11100;SDS011;5604;50.722;7.078;2023-04-03T15:55:38;3.63;;;1.67;;
11100;SDS011;5604;50.722;7.078;2023-04-03T15:58:11;2.03;;;1.67;;
11100;SDS011;5604;50.722;7.078;2023-04-03T16:00:44;3.73;;;1.40;;